Time;durP1;ratioP1;P1;durP2;ratioP2;P2;SDS_P1;SDS_P2;PMS_P1;PMS_P2;Temp;Humidity;BMP_temperature;BMP_pressure;BME280_temperature;BME280_humidity;BME280_pressure;Samples;Min_cycle;Max_cycle;Signal;HPM_P1;HPM_P2
2022/03/29 00:00:29;;;;;;;2.27;1.53;;;8.60;96.90;;;;;;6120221;23;20436;-73
2022/03/29 00:02:56;;;;;;;3.87;1.23;;;8.60;96.90;;;;;;6120543;23;20413;-73
2022/03/29 00:05:23;;;;;;;8.83;1.80;;;8.50;97.60;;;;;;6120721;23;20419;-73
2022/03/29 00:07:51;;;;;;;2.10;1.90;;;8.40;98.00;;;;;;6120353;23;20428;-73
2022/03/29 00:10:20;;;;;;;1.97;1.93;;;8.50;98.00;;;;;;6120612;23;20421;-73
2022/03/29 00:12:50;;;;;;;1.97;1.80;;;8.40;98.00;;;;;;6120537;23;20418;-73
2022/03/29 00:15:17;;;;;;;1.50;1.13;;;8.50;98.00;;;;;;6095293;23;20861;-73
2022/03/29 00:17:44;;;;;;;3.13;1.90;;;8.60;97.40;;;;;;6120432;23;20477;-73
2022/03/29 00:20:11;;;;;;;2.73;2.17;;;8.60;97.80;;;;;;6120218;23;20445;-73
2022/03/29 00:22:38;;;;;;;6.23;2.33;;;8.60;97.50;;;;;;6120226;23;20453;-73
2022/03/29 00:25:07;;;;;;;1.80;1.53;;;8.50;97.70;;;;;;6120522;23;20406;-73
2022/03/29 00:27:36;;;;;;;1.90;1.60;;;8.40;97.80;;;;;;6094647;23;20405;-73
2022/03/29 00:30:03;;;;;;;1.83;1.80;;;8.40;98.00;;;;;;6120223;23;20418;-73
2022/03/29 00:32:30;;;;;;;2.13;1.50;;;8.30;98.00;;;;;;6120225;23;20423;-73
2022/03/29 00:34:57;;;;;;;1.80;1.50;;;8.30;98.00;;;;;;6119813;23;20404;-73
2022/03/29 00:37:24;;;;;;;1.80;1.67;;;8.10;98.00;;;;;;6120282;23;20490;-73
2022/03/29 00:39:52;;;;;;;1.20;1.10;;;8.20;98.00;;;;;;6094033;23;20398;-73
2022/03/29 00:42:19;;;;;;;1.80;1.43;;;8.10;98.00;;;;;;6120618;23;20509;-73
2022/03/29 00:44:47;;;;;;;4.70;3.03;;;8.10;98.00;;;;;;6120002;23;20419;-73
2022/03/29 00:47:14;;;;;;;1.83;1.60;;;8.00;98.00;;;;;;6119249;23;20425;-73
2022/03/29 00:49:41;;;;;;;2.43;1.63;;;7.90;98.00;;;;;;6119943;23;20433;-73
2022/03/29 00:52:10;;;;;;;1.90;1.53;;;8.00;98.00;;;;;;6119925;23;20450;-73
2022/03/29 00:54:40;;;;;;;1.70;1.40;;;8.10;98.00;;;;;;6120258;23;20721;-73
2022/03/29 00:57:09;;;;;;;1.40;1.30;;;8.20;98.00;;;;;;6120485;23;20402;-73
2022/03/29 00:59:36;;;;;;;2.57;1.93;;;8.10;98.00;;;;;;6119800;23;20421;-73
2022/03/29 01:02:05;;;;;;;2.70;1.70;;;7.90;98.00;;;;;;6119728;23;20947;-73
2022/03/29 01:04:32;;;;;;;2.23;1.90;;;7.70;98.00;;;;;;6119579;23;20424;-73
2022/03/29 01:07:00;;;;;;;2.90;1.83;;;7.80;98.00;;;;;;6119744;23;20406;-73
2022/03/29 01:09:27;;;;;;;2.47;1.50;;;8.00;98.00;;;;;;6120291;23;20457;-73
2022/03/29 01:11:55;;;;;;;2.27;2.10;;;7.80;98.00;;;;;;6119555;23;20465;-73
2022/03/29 01:14:23;;;;;;;1.30;1.23;;;7.90;98.00;;;;;;6119890;23;20415;-73
2022/03/29 01:19:37;;;;;;;1.30;1.20;;;7.80;98.00;;;;;;6119662;23;20731;-73
2022/03/29 01:22:07;;;;;;;1.53;1.30;;;7.90;98.00;;;;;;6119778;23;20829;-73
2022/03/29 01:24:36;;;;;;;5.67;1.70;;;7.80;98.00;;;;;;6119445;23;20405;-72
2022/03/29 01:27:05;;;;;;;2.03;1.90;;;7.60;98.00;;;;;;6120019;23;20455;-73
2022/03/29 01:29:33;;;;;;;1.93;1.50;;;7.50;98.00;;;;;;6119746;23;20425;-73
2022/03/29 01:32:03;;;;;;;2.37;1.83;;;7.50;98.00;;;;;;6119531;23;20999;-73
2022/03/29 01:34:31;;;;;;;2.23;1.67;;;7.50;98.00;;;;;;6119366;23;20923;-72
2022/03/29 01:36:58;;;;;;;1.50;1.40;;;7.50;98.00;;;;;;6119506;23;20890;-73
2022/03/29 01:39:26;;;;;;;2.40;1.30;;;7.60;98.00;;;;;;6119763;23;20427;-73
2022/03/29 01:41:53;;;;;;;1.83;1.50;;;7.70;98.00;;;;;;6119478;23;20473;-73
2022/03/29 01:44:20;;;;;;;1.70;1.60;;;7.70;98.00;;;;;;6119871;23;20397;-72
2022/03/29 01:46:49;;;;;;;1.80;1.43;;;7.70;98.00;;;;;;6119955;23;20405;-73
2022/03/29 01:49:16;;;;;;;2.40;1.57;;;7.60;98.00;;;;;;6119629;23;20995;-72
2022/03/29 01:51:44;;;;;;;2.03;1.90;;;7.60;98.00;;;;;;6119721;23;20482;-73
2022/03/29 01:54:11;;;;;;;3.73;2.37;;;7.50;98.00;;;;;;6119235;23;20437;-73
2022/03/29 01:56:39;;;;;;;1.87;1.40;;;7.50;98.00;;;;;;6119290;23;20947;-72
2022/03/29 01:59:11;;;;;;;1.60;1.57;;;7.40;98.00;;;;;;6120275;23;20453;-72
2022/03/29 02:01:41;;;;;;;4.50;2.57;;;7.40;98.00;;;;;;6120908;23;20432;-73
2022/03/29 02:04:08;;;;;;;5.63;2.43;;;7.30;98.00;;;;;;6120863;23;20591;-72
2022/03/29 02:06:36;;;;;;;1.70;1.60;;;7.30;98.00;;;;;;6120896;23;20735;-73
2022/03/29 02:09:07;;;;;;;2.00;1.90;;;7.30;98.00;;;;;;6120961;23;20438;-73
2022/03/29 02:11:34;;;;;;;1.63;1.53;;;7.50;98.00;;;;;;6120831;23;20408;-73
2022/03/29 02:14:02;;;;;;;2.20;1.90;;;7.60;98.00;;;;;;6120922;23;20451;-73
2022/03/29 02:16:29;;;;;;;1.30;1.20;;;7.70;98.00;;;;;;6120994;23;20425;-73
2022/03/29 02:18:56;;;;;;;1.93;1.57;;;7.60;98.00;;;;;;6071411;23;20421;-73
2022/03/29 02:21:23;;;;;;;3.23;1.40;;;7.60;98.00;;;;;;6120478;23;20444;-73
2022/03/29 02:23:50;;;;;;;1.90;1.43;;;7.60;98.00;;;;;;6120763;23;20416;-72
2022/03/29 02:26:17;;;;;;;1.67;1.20;;;7.70;98.00;;;;;;6120752;23;20918;-73
2022/03/29 02:28:44;;;;;;;2.23;1.47;;;7.70;98.00;;;;;;6120767;23;20795;-72
2022/03/29 02:31:12;;;;;;;2.03;1.67;;;7.70;98.00;;;;;;6120537;23;20919;-73
2022/03/29 02:33:39;;;;;;;2.43;1.70;;;7.60;98.00;;;;;;6120457;23;20421;-73
2022/03/29 02:36:08;;;;;;;2.40;1.43;;;7.60;98.00;;;;;;6120645;23;20408;-73
2022/03/29 02:38:35;;;;;;;1.50;1.30;;;7.60;98.00;;;;;;6120629;23;20401;-72
2022/03/29 02:41:02;;;;;;;2.30;1.63;;;7.40;98.00;;;;;;6095241;23;20468;-72
2022/03/29 02:43:29;;;;;;;1.60;1.27;;;7.40;98.00;;;;;;6120685;23;20405;-72
2022/03/29 02:45:57;;;;;;;1.30;1.20;;;7.60;98.00;;;;;;6120556;23;20958;-72
2022/03/29 02:48:27;;;;;;;1.60;1.50;;;7.40;98.00;;;;;;6120873;23;20420;-72
2022/03/29 02:50:55;;;;;;;2.73;2.17;;;7.30;98.00;;;;;;6190634;23;20423;-72
2022/03/29 02:53:21;;;;;;;1.30;1.10;;;7.10;98.00;;;;;;6245594;22;20408;-73
2022/03/29 02:55:49;;;;;;;1.20;1.20;;;7.00;98.00;;;;;;6245273;22;20454;-73
2022/03/29 02:58:16;;;;;;;1.43;1.30;;;7.00;98.00;;;;;;6245494;22;20462;-72
2022/03/29 03:00:44;;;;;;;1.73;1.60;;;7.10;98.00;;;;;;6245096;22;20997;-73
2022/03/29 03:03:12;;;;;;;1.80;1.40;;;7.00;98.00;;;;;;6245346;22;20416;-72
2022/03/29 03:05:44;;;;;;;1.70;1.13;;;6.80;98.00;;;;;;6243662;23;20451;-73
2022/03/29 03:08:13;;;;;;;1.50;1.50;;;6.70;98.00;;;;;;6245250;22;20467;-73
2022/03/29 03:10:41;;;;;;;3.60;2.40;;;6.60;98.00;;;;;;6245372;22;20401;-72
2022/03/29 03:13:08;;;;;;;2.47;1.83;;;6.60;98.00;;;;;;6245531;22;20402;-72
2022/03/29 03:15:37;;;;;;;2.23;2.10;;;6.70;98.00;;;;;;6245855;22;20403;-73
2022/03/29 03:18:05;;;;;;;6.70;1.90;;;6.60;98.00;;;;;;6245563;22;20400;-72
2022/03/29 03:20:31;;;;;;;1.97;1.87;;;6.70;98.00;;;;;;6245647;22;20471;-73
2022/03/29 03:23:00;;;;;;;1.70;1.50;;;6.70;98.00;;;;;;6245013;22;20422;-72
2022/03/29 03:25:27;;;;;;;2.53;1.87;;;6.50;98.00;;;;;;6245404;22;20473;-72
2022/03/29 03:27:53;;;;;;;1.50;1.40;;;6.60;98.00;;;;;;6244949;22;20413;-72
2022/03/29 03:30:21;;;;;;;1.93;1.50;;;6.50;98.00;;;;;;6244931;22;20410;-72
2022/03/29 03:32:48;;;;;;;3.13;2.43;;;6.70;98.00;;;;;;6245355;22;20801;-72
2022/03/29 03:35:15;;;;;;;1.30;1.27;;;6.70;98.00;;;;;;6244466;22;20429;-72
2022/03/29 03:37:43;;;;;;;3.60;2.43;;;6.80;98.00;;;;;;6244779;22;20466;-72
2022/03/29 03:40:13;;;;;;;1.57;1.53;;;6.70;98.00;;;;;;6244394;22;21059;-73
2022/03/29 03:42:41;;;;;;;2.27;1.43;;;6.60;98.00;;;;;;6244647;22;20812;-72
2022/03/29 03:45:09;;;;;;;2.97;1.60;;;6.60;98.00;;;;;;6244369;22;20428;-73
2022/03/29 03:47:36;;;;;;;1.73;1.70;;;6.50;98.00;;;;;;6244701;22;20427;-72
2022/03/29 03:50:05;;;;;;;1.67;1.30;;;6.50;98.00;;;;;;6206014;22;20785;-72
2022/03/29 03:52:32;;;;;;;2.17;1.50;;;6.40;98.00;;;;;;6120006;23;20428;-72
2022/03/29 03:54:59;;;;;;;1.60;1.50;;;6.50;98.00;;;;;;6120345;23;20419;-72
2022/03/29 03:57:28;;;;;;;3.80;1.80;;;6.40;98.00;;;;;;6120127;23;20968;-72
2022/03/29 03:59:56;;;;;;;1.77;1.53;;;6.60;98.00;;;;;;6120218;23;20416;-72
2022/03/29 04:02:23;;;;;;;1.50;1.50;;;6.50;98.00;;;;;;6119893;23;20506;-72
2022/03/29 04:04:53;;;;;;;4.17;2.70;;;6.60;98.00;;;;;;6119952;23;20943;-72
2022/03/29 04:07:20;;;;;;;4.17;1.57;;;6.60;98.00;;;;;;6119378;23;20427;-72
2022/03/29 04:09:47;;;;;;;1.40;1.20;;;6.70;98.00;;;;;;6119947;23;20405;-72
2022/03/29 04:12:14;;;;;;;1.30;1.20;;;6.80;98.00;;;;;;6119942;23;20415;-72
2022/03/29 04:14:42;;;;;;;1.73;1.47;;;6.70;98.00;;;;;;6120262;23;20432;-72
2022/03/29 04:17:11;;;;;;;1.40;1.17;;;6.60;98.00;;;;;;6120381;23;20434;-72
2022/03/29 04:19:39;;;;;;;1.37;1.20;;;6.40;98.00;;;;;;6120293;23;20503;-72
2022/03/29 04:22:06;;;;;;;3.40;1.93;;;6.30;98.00;;;;;;6119818;23;20783;-72
2022/03/29 04:24:34;;;;;;;2.57;1.73;;;6.20;98.00;;;;;;6094554;23;20432;-72
2022/03/29 04:27:01;;;;;;;1.40;1.37;;;6.00;98.00;;;;;;6120405;23;20448;-72
2022/03/29 04:29:28;;;;;;;1.73;1.40;;;6.00;98.00;;;;;;6120239;23;20419;-72
2022/03/29 04:31:56;;;;;;;1.30;1.23;;;6.00;98.00;;;;;;6120548;23;20451;-72
2022/03/29 04:34:23;;;;;;;1.53;1.47;;;6.10;98.00;;;;;;6094598;23;20422;-72
2022/03/29 04:36:52;;;;;;;2.03;1.43;;;6.10;98.00;;;;;;6119868;23;20917;-72
2022/03/29 04:39:19;;;;;;;1.57;1.47;;;6.20;98.00;;;;;;6120263;23;20477;-72
2022/03/29 04:41:46;;;;;;;1.20;1.10;;;6.20;98.00;;;;;;6120199;23;20746;-72
2022/03/29 04:44:13;;;;;;;1.60;1.57;;;6.00;98.00;;;;;;6119925;23;20942;-72
2022/03/29 04:46:40;;;;;;;1.33;1.30;;;6.10;98.00;;;;;;6119992;23;20467;-72
2022/03/29 04:49:08;;;;;;;2.70;1.97;;;6.00;98.00;;;;;;6120104;23;20433;-72
2022/03/29 04:51:35;;;;;;;2.63;2.20;;;6.00;98.00;;;;;;6233222;23;20469;-72
2022/03/29 04:54:03;;;;;;;1.57;1.43;;;6.10;98.00;;;;;;6243604;22;20474;-72
2022/03/29 04:56:30;;;;;;;1.67;1.47;;;6.10;98.00;;;;;;6243940;22;20416;-72
2022/03/29 04:58:57;;;;;;;3.50;2.60;;;6.20;98.00;;;;;;6243869;22;20432;-72
2022/03/29 05:01:24;;;;;;;2.37;2.17;;;6.50;98.00;;;;;;6243821;22;20456;-72
2022/03/29 05:03:52;;;;;;;4.37;1.47;;;6.70;98.00;;;;;;6243520;22;20455;-72
2022/03/29 05:06:21;;;;;;;1.40;1.20;;;6.80;98.00;;;;;;6241930;23;20423;-72
2022/03/29 05:08:48;;;;;;;1.30;1.20;;;6.80;98.00;;;;;;6243767;22;20421;-72
2022/03/29 05:11:15;;;;;;;1.30;1.30;;;6.70;98.00;;;;;;6243952;22;20456;-72
2022/03/29 05:13:42;;;;;;;1.87;1.80;;;6.50;98.00;;;;;;6243888;22;20439;-72
2022/03/29 05:16:09;;;;;;;2.03;1.87;;;6.30;98.00;;;;;;6244193;22;20433;-72
2022/03/29 05:18:36;;;;;;;1.87;1.43;;;6.10;98.00;;;;;;6243139;22;20449;-72
2022/03/29 05:21:05;;;;;;;1.67;1.00;;;5.90;98.00;;;;;;6243831;22;20420;-72
2022/03/29 05:23:33;;;;;;;1.30;1.20;;;6.00;98.00;;;;;;6243902;22;20402;-72
2022/03/29 05:26:00;;;;;;;1.30;1.30;;;5.90;98.00;;;;;;6243636;22;20454;-72
2022/03/29 05:28:27;;;;;;;1.30;1.20;;;5.90;98.00;;;;;;6243884;22;20459;-72
2022/03/29 05:30:55;;;;;;;1.50;1.30;;;6.20;98.00;;;;;;6243842;22;20421;-72
2022/03/29 05:33:22;;;;;;;1.20;1.10;;;6.20;98.00;;;;;;6245944;22;20406;-72
2022/03/29 05:35:49;;;;;;;1.57;1.40;;;6.30;98.00;;;;;;6245614;22;20421;-72
2022/03/29 05:38:16;;;;;;;1.80;1.77;;;6.30;98.00;;;;;;6245938;22;20412;-72
2022/03/29 05:40:45;;;;;;;2.50;1.43;;;6.30;98.00;;;;;;6244154;23;20456;-72
2022/03/29 05:43:13;;;;;;;1.20;1.00;;;6.20;98.00;;;;;;6245947;22;20765;-72
2022/03/29 05:45:41;;;;;;;1.80;1.63;;;6.00;98.00;;;;;;6245989;22;20437;-72
2022/03/29 05:50:53;;;;;;;3.63;2.00;;;6.30;98.00;;;;;;6244448;23;20438;-72
2022/03/29 05:53:21;;;;;;;21.43;3.00;;;6.40;98.00;;;;;;6245819;22;20450;-72
2022/03/29 05:55:49;;;;;;;1.27;1.23;;;6.50;98.00;;;;;;6245802;22;20426;-72
2022/03/29 05:58:17;;;;;;;2.33;1.90;;;6.60;98.00;;;;;;6245763;22;20767;-72
2022/03/29 06:00:44;;;;;;;1.37;1.30;;;6.70;98.00;;;;;;6245201;22;20447;-72
2022/03/29 06:03:11;;;;;;;3.10;2.77;;;6.80;98.00;;;;;;6245647;22;20733;-72
2022/03/29 06:05:42;;;;;;;2.50;1.83;;;6.90;98.00;;;;;;6246106;22;20447;-72
2022/03/29 06:08:11;;;;;;;1.33;1.33;;;7.00;98.00;;;;;;6246167;22;20408;-72
2022/03/29 06:10:38;;;;;;;2.23;1.70;;;7.20;98.00;;;;;;6245705;22;20406;-72
2022/03/29 06:13:08;;;;;;;2.97;1.67;;;7.20;98.00;;;;;;6245316;22;20417;-72
2022/03/29 06:15:36;;;;;;;3.60;2.07;;;7.00;98.00;;;;;;6245507;22;20453;-72
2022/03/29 06:18:03;;;;;;;2.30;1.83;;;7.00;98.00;;;;;;6245715;22;20431;-72
2022/03/29 06:20:32;;;;;;;1.30;1.17;;;7.00;98.00;;;;;;6245570;22;20871;-72
2022/03/29 06:22:59;;;;;;;1.93;1.83;;;7.10;98.00;;;;;;6245446;22;20717;-72
2022/03/29 06:25:26;;;;;;;1.40;1.20;;;7.40;98.00;;;;;;6245205;22;20454;-72
2022/03/29 06:27:54;;;;;;;3.33;3.13;;;7.60;98.00;;;;;;6245323;22;20423;-72
2022/03/29 06:30:22;;;;;;;2.70;2.57;;;7.80;98.00;;;;;;6244932;22;20414;-72
2022/03/29 06:32:51;;;;;;;1.30;1.20;;;7.80;98.00;;;;;;6244903;22;20474;-72
2022/03/29 06:35:21;;;;;;;3.10;1.77;;;7.90;98.00;;;;;;6245059;22;20707;-72
2022/03/29 06:37:48;;;;;;;1.40;1.20;;;7.70;98.00;;;;;;6244673;22;20418;-72
2022/03/29 06:40:15;;;;;;;2.83;1.73;;;7.60;98.00;;;;;;6245178;22;20757;-72
2022/03/29 06:42:42;;;;;;;4.50;1.30;;;7.60;98.00;;;;;;6244546;22;20475;-71
2022/03/29 06:45:10;;;;;;;2.00;1.67;;;7.80;98.00;;;;;;6244835;22;20416;-72
2022/03/29 06:47:39;;;;;;;1.53;1.40;;;7.90;98.00;;;;;;6245128;22;20429;-72
2022/03/29 06:50:07;;;;;;;2.40;1.67;;;8.00;98.00;;;;;;6203869;22;20433;-73
2022/03/29 06:52:36;;;;;;;3.20;2.13;;;8.10;98.00;;;;;;6120739;23;20420;-71
2022/03/29 06:55:03;;;;;;;1.90;1.40;;;8.10;98.00;;;;;;6120650;23;20444;-70
2022/03/29 06:57:31;;;;;;;2.33;1.20;;;8.40;98.00;;;;;;6120661;23;20490;-73
2022/03/29 06:59:58;;;;;;;2.50;1.77;;;8.40;98.00;;;;;;6094642;23;20401;-73
2022/03/29 07:02:28;;;;;;;2.33;1.80;;;8.20;98.00;;;;;;6120548;23;20437;-72
2022/03/29 07:04:56;;;;;;;1.63;1.60;;;8.20;98.00;;;;;;6070418;23;20435;-71
2022/03/29 07:07:24;;;;;;;1.80;1.40;;;8.30;98.00;;;;;;6120367;23;20503;-71
2022/03/29 07:12:47;;;;;;;2.27;1.93;;;8.70;98.00;;;;;;6120433;23;20886;-72
2022/03/29 07:15:14;;;;;;;2.80;2.23;;;8.80;98.00;;;;;;6120118;23;20400;-72
2022/03/29 07:17:41;;;;;;;2.13;1.83;;;8.80;98.00;;;;;;6120628;23;20736;-72
2022/03/29 07:20:11;;;;;;;10.23;1.90;;;8.90;98.00;;;;;;6093697;23;20432;-72
2022/03/29 07:22:38;;;;;;;2.43;2.23;;;9.00;98.00;;;;;;6120136;23;20429;-72
2022/03/29 07:25:06;;;;;;;3.47;1.70;;;9.20;98.00;;;;;;6120448;23;20425;-73
2022/03/29 07:27:33;;;;;;;1.50;1.50;;;9.50;98.00;;;;;;6120524;23;20434;-73
2022/03/29 07:30:00;;;;;;;3.77;2.53;;;9.60;98.00;;;;;;6120602;23;20780;-71
2022/03/29 07:32:34;;;;;;;2.43;1.83;;;9.60;98.00;;;;;;6117090;23;20460;-71
2022/03/29 07:35:01;;;;;;;3.90;2.07;;;9.60;98.00;;;;;;6119672;23;20709;-70
2022/03/29 07:37:30;;;;;;;2.00;1.80;;;9.70;98.00;;;;;;6119475;23;20464;-70
2022/03/29 07:39:57;;;;;;;2.60;2.33;;;9.90;98.00;;;;;;6119052;23;20418;-71
2022/03/29 07:42:25;;;;;;;2.03;1.87;;;10.20;98.00;;;;;;6119403;23;20487;-71
2022/03/29 07:44:52;;;;;;;1.47;1.40;;;10.70;98.00;;;;;;6119090;23;20410;-72
2022/03/29 07:47:20;;;;;;;2.00;1.83;;;11.10;98.00;;;;;;6119347;23;20406;-72
2022/03/29 07:49:47;;;;;;;1.90;1.80;;;11.50;98.00;;;;;;6118764;23;20479;-73
2022/03/29 07:52:15;;;;;;;1.93;1.63;;;11.90;96.60;;;;;;6119450;23;20426;-72
2022/03/29 07:54:43;;;;;;;2.50;1.77;;;12.00;92.20;;;;;;6118680;23;20407;-72
2022/03/29 07:57:10;;;;;;;3.40;2.10;;;11.70;92.40;;;;;;6118875;23;20443;-72
2022/03/29 07:59:38;;;;;;;2.83;2.27;;;11.50;95.00;;;;;;6119300;23;20406;-71
2022/03/29 08:02:06;;;;;;;2.83;2.13;;;11.70;95.00;;;;;;6118678;23;20424;-71
2022/03/29 08:04:37;;;;;;;2.73;1.60;;;12.00;92.70;;;;;;6118745;23;20412;-72
2022/03/29 08:07:05;;;;;;;5.67;3.60;;;12.00;92.40;;;;;;6119354;23;20422;-71
2022/03/29 08:09:33;;;;;;;2.47;1.83;;;12.00;92.30;;;;;;6118947;23;20450;-71
2022/03/29 08:12:02;;;;;;;2.13;1.73;;;11.80;93.40;;;;;;6119390;23;20479;-71
2022/03/29 08:14:29;;;;;;;2.13;2.00;;;11.70;93.90;;;;;;6118673;23;20440;-71
2022/03/29 08:16:56;;;;;;;3.47;1.97;;;11.50;94.40;;;;;;6118239;23;20915;-71
2022/03/29 08:19:23;;;;;;;2.17;2.03;;;11.50;93.60;;;;;;6117890;23;20763;-72
2022/03/29 08:21:50;;;;;;;2.30;1.87;;;11.60;94.10;;;;;;6119527;23;20409;-72
2022/03/29 08:24:18;;;;;;;1.80;1.70;;;11.90;93.80;;;;;;6118354;23;20509;-72
2022/03/29 08:26:46;;;;;;;2.30;1.97;;;12.00;92.90;;;;;;6119490;23;20803;-72
2022/03/29 08:29:15;;;;;;;3.33;2.77;;;12.20;92.00;;;;;;6120230;23;20412;-71
2022/03/29 08:31:44;;;;;;;3.10;2.20;;;12.40;91.10;;;;;;6120530;23;20497;-71
2022/03/29 08:34:11;;;;;;;2.30;2.10;;;12.50;91.90;;;;;;6120963;23;20956;-72
2022/03/29 08:36:39;;;;;;;2.00;1.73;;;12.70;92.60;;;;;;6119888;23;20422;-72
2022/03/29 08:39:07;;;;;;;2.50;1.63;;;12.80;91.20;;;;;;6119169;23;20647;-72
2022/03/29 08:41:38;;;;;;;1.90;1.73;;;13.00;89.50;;;;;;6119445;23;20529;-72
2022/03/29 08:44:07;;;;;;;5.20;2.83;;;13.10;91.10;;;;;;6118981;23;20509;-72
2022/03/29 08:46:38;;;;;;;3.53;2.33;;;13.20;91.00;;;;;;6119682;23;20499;-72
2022/03/29 08:49:06;;;;;;;2.17;1.57;;;13.20;91.10;;;;;;6119446;23;20459;-73
2022/03/29 08:51:33;;;;;;;3.70;2.43;;;13.50;91.40;;;;;;6118503;23;20502;-72
2022/03/29 08:54:00;;;;;;;3.53;1.90;;;13.60;89.70;;;;;;6118792;23;20409;-72
2022/03/29 08:56:27;;;;;;;5.17;3.13;;;13.80;89.40;;;;;;6119174;23;20411;-72
2022/03/29 08:58:54;;;;;;;6.03;2.80;;;14.00;88.50;;;;;;6118907;23;20412;-72
2022/03/29 09:01:22;;;;;;;3.17;3.00;;;14.10;86.80;;;;;;6119953;23;20458;-74
2022/03/29 09:04:10;;;;;;;2.50;2.30;;;14.20;86.20;;;;;;6119233;23;20448;-70
2022/03/29 09:06:56;;;;;;;1.97;1.87;;;14.40;84.50;;;;;;6118993;23;20789;-71
2022/03/29 09:09:26;;;;;;;3.00;2.00;;;14.50;85.30;;;;;;6118905;23;20864;-71
2022/03/29 09:11:55;;;;;;;1.90;1.70;;;14.60;86.70;;;;;;6119113;23;20416;-72
2022/03/29 09:14:22;;;;;;;2.90;2.20;;;14.70;84.20;;;;;;6119468;23;20404;-72
2022/03/29 09:16:51;;;;;;;3.10;2.53;;;14.70;82.00;;;;;;6118750;23;20500;-71
2022/03/29 09:19:21;;;;;;;3.23;2.30;;;14.60;82.10;;;;;;6093616;23;20424;-71
2022/03/29 09:21:48;;;;;;;5.67;3.00;;;14.50;84.00;;;;;;6118771;23;20446;-71
2022/03/29 09:24:19;;;;;;;2.97;2.20;;;14.60;82.60;;;;;;6118723;23;20506;-72
2022/03/29 09:26:49;;;;;;;2.67;2.33;;;14.80;82.30;;;;;;6118821;23;20794;-72
2022/03/29 09:29:17;;;;;;;3.07;2.47;;;14.90;81.60;;;;;;6118836;23;20432;-72
2022/03/29 09:31:45;;;;;;;2.93;2.50;;;15.00;80.60;;;;;;6118686;23;20460;-72
2022/03/29 09:34:15;;;;;;;3.30;1.97;;;15.20;82.00;;;;;;6093315;23;20417;-73
2022/03/29 09:36:46;;;;;;;2.70;2.10;;;15.20;80.40;;;;;;6118718;23;20560;-73
2022/03/29 09:39:32;;;;;;;2.80;1.90;;;15.00;80.70;;;;;;6119550;23;20409;-73
2022/03/29 09:42:01;;;;;;;4.33;2.40;;;15.20;81.10;;;;;;6118867;23;20434;-73
2022/03/29 09:44:37;;;;;;;3.50;1.83;;;15.40;81.20;;;;;;6118672;23;20754;-73
2022/03/29 09:47:07;;;;;;;2.90;2.03;;;15.50;82.00;;;;;;6118394;23;20459;-72
2022/03/29 09:49:54;;;;;;;2.30;2.10;;;15.60;81.40;;;;;;6117543;23;20410;-73
2022/03/29 09:52:24;;;;;;;2.33;1.90;;;15.80;79.50;;;;;;6118587;23;20406;-71
2022/03/29 09:55:13;;;;;;;4.50;2.67;;;15.80;79.20;;;;;;6118423;23;20397;-72
2022/03/29 09:57:42;;;;;;;3.23;2.07;;;15.90;79.70;;;;;;6119646;23;20467;-72
2022/03/29 10:00:11;;;;;;;4.17;2.73;;;16.10;79.60;;;;;;6119063;23;20424;-72
2022/03/29 10:02:40;;;;;;;9.13;2.90;;;16.40;78.70;;;;;;6119597;23;20417;-73
2022/03/29 10:05:10;;;;;;;3.00;2.10;;;16.70;77.60;;;;;;6119262;23;20413;-73
2022/03/29 10:07:44;;;;;;;2.53;1.70;;;16.90;77.90;;;;;;6119103;23;20406;-72
2022/03/29 10:10:12;;;;;;;4.00;3.00;;;17.10;76.90;;;;;;6119252;23;20802;-72
2022/03/29 10:12:40;;;;;;;7.30;3.17;;;17.10;75.50;;;;;;6119339;23;20445;-73
2022/03/29 10:15:09;;;;;;;2.87;2.10;;;17.20;74.50;;;;;;6119427;23;20432;-72
2022/03/29 10:17:37;;;;;;;4.67;2.63;;;17.40;75.10;;;;;;6119280;23;20406;-72
2022/03/29 10:20:06;;;;;;;5.47;2.80;;;17.40;74.70;;;;;;6094675;23;20401;-72
2022/03/29 10:22:36;;;;;;;3.60;2.33;;;17.50;73.50;;;;;;6119768;23;20920;-72
2022/03/29 10:25:05;;;;;;;3.00;2.00;;;17.70;75.60;;;;;;6120801;23;20833;-73
2022/03/29 10:27:33;;;;;;;3.27;2.00;;;17.80;74.20;;;;;;6120934;23;20444;-72
2022/03/29 10:30:00;;;;;;;4.07;2.37;;;18.00;74.30;;;;;;6121315;23;20401;-73
2022/03/29 10:32:32;;;;;;;3.83;2.63;;;18.20;73.80;;;;;;6121481;23;20402;-73
2022/03/29 10:35:07;;;;;;;4.33;2.20;;;18.40;73.00;;;;;;6120814;23;20491;-72
2022/03/29 10:37:53;;;;;;;4.07;2.60;;;18.60;72.90;;;;;;6120911;23;20436;-73
2022/03/29 10:40:39;;;;;;;4.40;2.37;;;18.80;71.60;;;;;;6120854;23;20488;-73
2022/03/29 10:43:26;;;;;;;5.80;2.33;;;18.80;69.60;;;;;;6120404;23;20429;-73
2022/03/29 10:45:53;;;;;;;4.77;2.30;;;18.80;68.40;;;;;;6120522;23;20441;-72
2022/03/29 10:48:21;;;;;;;3.00;1.90;;;18.90;70.90;;;;;;6095228;23;20500;-73
2022/03/29 10:51:00;;;;;;;3.20;2.23;;;18.90;68.20;;;;;;6120119;23;20456;-73
2022/03/29 10:53:36;;;;;;;3.90;3.00;;;18.90;69.80;;;;;;6120802;23;20404;-72
2022/03/29 10:56:23;;;;;;;3.80;2.20;;;18.90;69.90;;;;;;6120690;23;20455;-72
2022/03/29 10:59:14;;;;;;;4.60;2.23;;;18.90;68.40;;;;;;6120794;23;20775;-72
2022/03/29 11:01:42;;;;;;;3.10;2.00;;;19.00;67.30;;;;;;6092126;23;20915;-73
2022/03/29 11:04:16;;;;;;;5.23;2.90;;;18.90;66.60;;;;;;6120303;23;20445;-72
2022/03/29 11:07:14;;;;;;;4.20;2.60;;;18.70;66.10;;;;;;6120830;23;20703;-74
2022/03/29 11:09:44;;;;;;;5.23;2.73;;;18.70;67.90;;;;;;6120764;23;20441;-72
2022/03/29 11:12:38;;;;;;;4.30;2.53;;;18.60;66.80;;;;;;6120635;23;20758;-72
2022/03/29 11:15:45;;;;;;;6.87;3.60;;;18.60;67.80;;;;;;6120630;23;20425;-73
2022/03/29 11:18:38;;;;;;;6.37;2.87;;;18.60;66.30;;;;;;6120765;23;20429;-73
2022/03/29 11:21:06;;;;;;;3.23;2.20;;;18.70;68.50;;;;;;6121084;23;20428;-74
2022/03/29 11:23:34;;;;;;;4.40;2.77;;;18.70;69.50;;;;;;6121039;23;20472;-74
2022/03/29 11:26:06;;;;;;;5.10;2.40;;;18.80;69.90;;;;;;6094540;23;20471;-72
2022/03/29 11:28:34;;;;;;;3.63;2.50;;;18.90;69.00;;;;;;6120709;23;20394;-72
2022/03/29 11:31:01;;;;;;;4.80;2.30;;;19.20;69.20;;;;;;6120062;23;20468;-72
2022/03/29 11:33:32;;;;;;;8.83;3.13;;;19.20;66.90;;;;;;6120525;23;20421;-73
2022/03/29 11:35:59;;;;;;;7.27;3.50;;;19.20;67.40;;;;;;6120388;23;20490;-73
2022/03/29 11:38:36;;;;;;;4.03;2.73;;;19.40;68.00;;;;;;6120560;23;20452;-73
2022/03/29 11:41:04;;;;;;;3.60;2.80;;;19.50;67.30;;;;;;6119477;23;20394;-73
2022/03/29 11:43:33;;;;;;;4.40;2.53;;;19.70;67.60;;;;;;6120360;23;20776;-73
2022/03/29 11:46:02;;;;;;;6.03;2.73;;;19.90;67.80;;;;;;6094227;23;20424;-73
2022/03/29 11:48:29;;;;;;;3.97;2.67;;;20.10;65.70;;;;;;6120636;23;20728;-74
2022/03/29 11:50:58;;;;;;;7.00;2.97;;;20.10;64.80;;;;;;6192842;23;20429;-73
2022/03/29 11:53:26;;;;;;;5.67;2.50;;;20.20;65.80;;;;;;6244600;22;20836;-73
2022/03/29 11:55:59;;;;;;;5.00;2.70;;;20.20;66.20;;;;;;6244081;22;20414;-73
2022/03/29 11:58:28;;;;;;;9.30;4.33;;;20.10;66.80;;;;;;6244373;22;21030;-73
2022/03/29 12:01:02;;;;;;;4.07;2.60;;;20.10;64.40;;;;;;6244510;22;20773;-73
2022/03/29 12:03:34;;;;;;;8.23;4.00;;;19.90;65.10;;;;;;6244494;22;20429;-72
2022/03/29 12:06:09;;;;;;;3.47;2.87;;;19.80;65.40;;;;;;6244431;22;20729;-73
2022/03/29 12:08:51;;;;;;;3.63;2.63;;;19.80;65.40;;;;;;6244126;22;20456;-73
2022/03/29 12:11:20;;;;;;;4.73;3.00;;;19.80;65.20;;;;;;6244204;22;20414;-73
2022/03/29 12:13:48;;;;;;;6.67;3.30;;;19.90;65.90;;;;;;6245060;22;20417;-73
2022/03/29 12:16:22;;;;;;;5.40;2.43;;;20.00;67.40;;;;;;6244141;22;20422;-73
2022/03/29 12:18:51;;;;;;;7.23;2.97;;;20.00;64.90;;;;;;6244665;22;20433;-73
2022/03/29 12:21:22;;;;;;;9.80;3.70;;;20.00;65.30;;;;;;6243925;22;20417;-73
2022/03/29 12:23:57;;;;;;;3.87;2.57;;;19.90;66.70;;;;;;6244449;22;20749;-71
2022/03/29 12:26:25;;;;;;;4.57;3.10;;;19.80;67.90;;;;;;6244298;22;20769;-70
2022/03/29 12:28:52;;;;;;;4.87;2.63;;;19.90;67.70;;;;;;6244681;22;20441;-71
2022/03/29 12:31:23;;;;;;;4.00;2.30;;;19.80;64.70;;;;;;6244380;22;20398;-73
2022/03/29 12:33:52;;;;;;;3.90;2.73;;;19.70;65.10;;;;;;6244465;22;20394;-73
2022/03/29 12:36:20;;;;;;;8.87;3.67;;;19.70;65.00;;;;;;6243888;22;20405;-72
2022/03/29 12:38:49;;;;;;;3.13;2.47;;;19.70;65.00;;;;;;6244252;22;20766;-74
2022/03/29 12:41:32;;;;;;;4.83;2.87;;;19.80;67.20;;;;;;6243978;22;20724;-73
2022/03/29 12:44:00;;;;;;;7.03;4.03;;;19.90;65.00;;;;;;6243826;22;20505;-73
2022/03/29 12:46:30;;;;;;;5.63;2.77;;;19.90;65.10;;;;;;6243712;22;20413;-73
2022/03/29 12:48:58;;;;;;;4.70;3.23;;;20.10;65.50;;;;;;6244733;22;20695;-73
2022/03/29 12:51:29;;;;;;;4.37;2.47;;;20.20;63.70;;;;;;6136146;22;20524;-72
2022/03/29 12:53:58;;;;;;;4.43;3.03;;;20.20;64.40;;;;;;6120731;23;20447;-73
2022/03/29 12:56:29;;;;;;;6.20;2.60;;;20.50;66.70;;;;;;6120798;23;20413;-73
2022/03/29 12:58:56;;;;;;;5.90;3.43;;;20.70;65.30;;;;;;6120897;23;20417;-73
2022/03/29 13:01:31;;;;;;;9.37;2.83;;;20.70;64.70;;;;;;6120303;23;20483;-73
2022/03/29 13:04:08;;;;;;;7.33;3.07;;;20.80;64.10;;;;;;6095474;23;20996;-73
2022/03/29 13:06:43;;;;;;;5.10;2.83;;;20.90;66.60;;;;;;6120577;23;20405;-73
2022/03/29 13:09:16;;;;;;;3.30;2.63;;;21.00;64.30;;;;;;6120215;23;20439;-73
2022/03/29 13:11:43;;;;;;;5.17;3.27;;;21.20;65.00;;;;;;6119891;23;20414;-73